Česky Dansk Deutsch English Español Suomi Français Magyar Italiano Nederlands norsk Polski Português svenska Türkçe

 

Het Weer

Carrasco (Uruguay)

03:00, 14 augustus 2016 (GMT)

NWNNE
WE
SWSSE
Home            
Carrasco Melilla Capitan Corbeta Maldonado / Punta Est Durazno Colonia La Plata Aerodrome Aeroparque Bs. As. Aerodrome Buenos Aires Observatorio Dolores Aerodrome Ezeiza Aerodrome Treinta Y Tres El Palomar Aerodrome San Fernando, BA Don Torcuato Aerodrome Mercedes Villa Gesell Gualeguaychu Aerodrome Melo Paysandu Tacuarembo Mar Del Plata Aerodrome Tandil Aerodrome

Om een weerknop op uw website of weblog te plaatsen, copieer onderstaande code en plak die in uw pagina. In het eerste vakje staat HTML-code, in het tweede vakje UBB-code.


Add to Google

Details

Wind speed:1 bf, 3 kn, 1.5 m/s, 3.5 miles/h, 5.6 km/h
Wind direction:WNW, 300°
Visibility: 4000 m, 4.0 km, 13123 ft, 2.5 miles
Het Weer:kohtalaista utua
Lämpötila:12°C, 54°F
Kastepisteen:10°C, 50°F
Ilmanpaine:1012 hPa, 759.1 mmHg, 29.88 inHg, 0.999 atm
Suhteellinen kosteus:87.6 %
METAR:SUMU 140300Z 30003KT 4000 BR NSC 12/10 Q1012 TEMPO BR

Snelkoppelingen

Actuele weersinformatie van de hele wereld. Voeg locaties toe met het plus (+) symbool. Deze snelkoppelingen kunnen worden toegevoegd aan Google.

Lid van de Technetium groep

website free tracking
StatCounter NetStat W3C Validator

21-07-2019 05:21:23
astro.technetium.be money.technetium.be phote.technetium.be tafeltennistafel.technetium.be www.ligfiets.net